sensor_id;sensor_type;location;lat;lon;timestamp;P1;durP1;ratioP1;P2;durP2;ratioP2
62554;SDS011;48610;52.144;8.624;2023-05-10T00:01:15;9.27;;;6.95;;
62554;SDS011;48610;52.144;8.624;2023-05-10T00:04:16;10.52;;;7.95;;
62554;SDS011;48610;52.144;8.624;2023-05-10T00:07:16;11.15;;;8.32;;
62554;SDS011;48610;52.144;8.624;2023-05-10T00:10:17;10.88;;;7.90;;
62554;SDS011;48610;52.144;8.624;2023-05-10T00:13:18;10.40;;;8.00;;
62554;SDS011;48610;52.144;8.624;2023-05-10T00:16:18;9.85;;;7.22;;
62554;SDS011;48610;52.144;8.624;2023-05-10T00:19:19;10.57;;;7.38;;
62554;SDS011;48610;52.144;8.624;2023-05-10T00:22:20;11.77;;;8.30;;
62554;SDS011;48610;52.144;8.624;2023-05-10T00:25:21;10.82;;;7.90;;
62554;SDS011;48610;52.144;8.624;2023-05-10T00:28:21;12.25;;;8.00;;
62554;SDS011;48610;52.144;8.624;2023-05-10T00:31:22;12.40;;;8.55;;
62554;SDS011;48610;52.144;8.624;2023-05-10T00:34:23;10.68;;;8.40;;
62554;SDS011;48610;52.144;8.624;2023-05-10T00:37:24;10.85;;;8.35;;
62554;SDS011;48610;52.144;8.624;2023-05-10T00:40:25;10.90;;;8.75;;
62554;SDS011;48610;52.144;8.624;2023-05-10T00:43:25;14.55;;;7.88;;
62554;SDS011;48610;52.144;8.624;2023-05-10T00:46:26;11.65;;;8.38;;
62554;SDS011;48610;52.144;8.624;2023-05-10T00:49:27;14.40;;;9.02;;
62554;SDS011;48610;52.144;8.624;2023-05-10T00:52:28;17.60;;;9.77;;
62554;SDS011;48610;52.144;8.624;2023-05-10T00:55:30;15.82;;;9.15;;
62554;SDS011;48610;52.144;8.624;2023-05-10T00:58:31;11.98;;;8.63;;
62554;SDS011;48610;52.144;8.624;2023-05-10T01:01:31;13.63;;;9.70;;
62554;SDS011;48610;52.144;8.624;2023-05-10T01:04:32;14.55;;;9.68;;
62554;SDS011;48610;52.144;8.624;2023-05-10T01:07:33;16.60;;;10.10;;
62554;SDS011;48610;52.144;8.624;2023-05-10T01:10:34;14.85;;;10.30;;
62554;SDS011;48610;52.144;8.624;2023-05-10T01:13:36;14.55;;;10.23;;
62554;SDS011;48610;52.144;8.624;2023-05-10T01:16:38;17.60;;;10.07;;
62554;SDS011;48610;52.144;8.624;2023-05-10T01:19:41;16.15;;;10.32;;
62554;SDS011;48610;52.144;8.624;2023-05-10T01:26:33;17.30;;;11.00;;
62554;SDS011;48610;52.144;8.624;2023-05-10T01:36:30;16.70;;;11.10;;
62554;SDS011;48610;52.144;8.624;2023-05-10T01:42:49;18.05;;;11.32;;
62554;SDS011;48610;52.144;8.624;2023-05-10T01:46:05;19.13;;;11.90;;
62554;SDS011;48610;52.144;8.624;2023-05-10T01:49:16;21.75;;;13.77;;
62554;SDS011;48610;52.144;8.624;2023-05-10T01:55:30;22.75;;;13.80;;
62554;SDS011;48610;52.144;8.624;2023-05-10T01:58:33;20.90;;;12.15;;
62554;SDS011;48610;52.144;8.624;2023-05-10T02:01:36;24.20;;;12.95;;
62554;SDS011;48610;52.144;8.624;2023-05-10T02:04:38;19.25;;;11.60;;
62554;SDS011;48610;52.144;8.624;2023-05-10T02:07:40;20.27;;;12.15;;
62554;SDS011;48610;52.144;8.624;2023-05-10T02:10:41;18.42;;;11.77;;
62554;SDS011;48610;52.144;8.624;2023-05-10T02:13:44;19.15;;;11.45;;
62554;SDS011;48610;52.144;8.624;2023-05-10T02:16:47;23.65;;;13.02;;
62554;SDS011;48610;52.144;8.624;2023-05-10T02:19:50;18.10;;;12.27;;
62554;SDS011;48610;52.144;8.624;2023-05-10T02:22:52;16.73;;;10.75;;
62554;SDS011;48610;52.144;8.624;2023-05-10T02:25:56;15.73;;;9.75;;
62554;SDS011;48610;52.144;8.624;2023-05-10T02:29:02;18.40;;;10.35;;
62554;SDS011;48610;52.144;8.624;2023-05-10T02:32:03;21.75;;;10.57;;
62554;SDS011;48610;52.144;8.624;2023-05-10T02:35:06;13.88;;;9.50;;
62554;SDS011;48610;52.144;8.624;2023-05-10T02:38:08;16.15;;;9.20;;
62554;SDS011;48610;52.144;8.624;2023-05-10T02:41:09;18.25;;;8.40;;
62554;SDS011;48610;52.144;8.624;2023-05-10T02:44:12;15.52;;;9.07;;
62554;SDS011;48610;52.144;8.624;2023-05-10T02:47:15;11.82;;;7.43;;
62554;SDS011;48610;52.144;8.624;2023-05-10T02:50:17;12.80;;;7.40;;
62554;SDS011;48610;52.144;8.624;2023-05-10T02:53:22;10.85;;;6.93;;
62554;SDS011;48610;52.144;8.624;2023-05-10T02:56:29;18.55;;;7.15;;
62554;SDS011;48610;52.144;8.624;2023-05-10T02:59:34;11.65;;;7.00;;
62554;SDS011;48610;52.144;8.624;2023-05-10T03:02:34;16.20;;;7.63;;
62554;SDS011;48610;52.144;8.624;2023-05-10T03:05:36;14.25;;;7.97;;
62554;SDS011;48610;52.144;8.624;2023-05-10T03:08:36;14.90;;;8.05;;
62554;SDS011;48610;52.144;8.624;2023-05-10T03:15:12;14.48;;;8.15;;
62554;SDS011;48610;52.144;8.624;2023-05-10T03:18:22;17.17;;;8.77;;
62554;SDS011;48610;52.144;8.624;2023-05-10T03:21:28;16.52;;;9.73;;
62554;SDS011;48610;52.144;8.624;2023-05-10T03:24:30;19.75;;;10.20;;
62554;SDS011;48610;52.144;8.624;2023-05-10T03:27:32;18.70;;;11.18;;
62554;SDS011;48610;52.144;8.624;2023-05-10T03:30:35;23.88;;;10.68;;
62554;SDS011;48610;52.144;8.624;2023-05-10T03:33:45;23.83;;;10.82;;
62554;SDS011;48610;52.144;8.624;2023-05-10T03:36:47;19.13;;;10.65;;
62554;SDS011;48610;52.144;8.624;2023-05-10T03:39:47;23.80;;;10.07;;
62554;SDS011;48610;52.144;8.624;2023-05-10T03:42:48;28.58;;;10.63;;
62554;SDS011;48610;52.144;8.624;2023-05-10T03:45:48;20.27;;;11.00;;
62554;SDS011;48610;52.144;8.624;2023-05-10T03:48:49;22.80;;;11.40;;
62554;SDS011;48610;52.144;8.624;2023-05-10T03:51:50;22.73;;;10.75;;
62554;SDS011;48610;52.144;8.624;2023-05-10T03:54:50;23.15;;;11.70;;
62554;SDS011;48610;52.144;8.624;2023-05-10T03:57:51;23.50;;;11.05;;
62554;SDS011;48610;52.144;8.624;2023-05-10T04:00:53;22.05;;;11.27;;
62554;SDS011;48610;52.144;8.624;2023-05-10T04:03:54;20.55;;;10.85;;
62554;SDS011;48610;52.144;8.624;2023-05-10T04:06:54;27.23;;;11.38;;
62554;SDS011;48610;52.144;8.624;2023-05-10T04:09:55;23.75;;;11.98;;
62554;SDS011;48610;52.144;8.624;2023-05-10T04:12:55;24.67;;;11.60;;
62554;SDS011;48610;52.144;8.624;2023-05-10T04:15:56;27.98;;;12.38;;
62554;SDS011;48610;52.144;8.624;2023-05-10T04:18:57;28.45;;;12.70;;
62554;SDS011;48610;52.144;8.624;2023-05-10T04:21:57;23.80;;;11.00;;
62554;SDS011;48610;52.144;8.624;2023-05-10T04:24:58;28.92;;;11.57;;
62554;SDS011;48610;52.144;8.624;2023-05-10T04:27:59;24.48;;;11.77;;
62554;SDS011;48610;52.144;8.624;2023-05-10T04:31:00;16.77;;;8.25;;
62554;SDS011;48610;52.144;8.624;2023-05-10T04:34:08;13.85;;;7.10;;
62554;SDS011;48610;52.144;8.624;2023-05-10T04:37:08;12.82;;;5.28;;
62554;SDS011;48610;52.144;8.624;2023-05-10T04:40:09;7.53;;;4.30;;
62554;SDS011;48610;52.144;8.624;2023-05-10T04:43:10;6.85;;;3.45;;
62554;SDS011;48610;52.144;8.624;2023-05-10T04:46:10;4.32;;;2.85;;
62554;SDS011;48610;52.144;8.624;2023-05-10T04:49:11;6.10;;;3.25;;
62554;SDS011;48610;52.144;8.624;2023-05-10T04:52:12;7.68;;;3.55;;
62554;SDS011;48610;52.144;8.624;2023-05-10T04:55:12;9.25;;;4.78;;
62554;SDS011;48610;52.144;8.624;2023-05-10T04:58:13;9.38;;;5.22;;
62554;SDS011;48610;52.144;8.624;2023-05-10T05:01:14;7.65;;;4.63;;
62554;SDS011;48610;52.144;8.624;2023-05-10T05:04:14;8.85;;;5.53;;
62554;SDS011;48610;52.144;8.624;2023-05-10T05:07:15;12.35;;;6.00;;
62554;SDS011;48610;52.144;8.624;2023-05-10T05:10:16;13.60;;;7.95;;
62554;SDS011;48610;52.144;8.624;2023-05-10T05:13:17;14.05;;;7.63;;
62554;SDS011;48610;52.144;8.624;2023-05-10T05:16:17;18.73;;;8.52;;
62554;SDS011;48610;52.144;8.624;2023-05-10T05:19:19;18.85;;;8.60;;
62554;SDS011;48610;52.144;8.624;2023-05-10T05:22:19;21.08;;;8.60;;
62554;SDS011;48610;52.144;8.624;2023-05-10T05:25:27;21.50;;;8.98;;
62554;SDS011;48610;52.144;8.624;2023-05-10T05:28:28;19.27;;;9.05;;
62554;SDS011;48610;52.144;8.624;2023-05-10T05:31:32;19.73;;;9.67;;
62554;SDS011;48610;52.144;8.624;2023-05-10T05:34:33;17.73;;;8.38;;
62554;SDS011;48610;52.144;8.624;2023-05-10T05:37:34;20.38;;;9.52;;
62554;SDS011;48610;52.144;8.624;2023-05-10T05:40:35;19.25;;;9.32;;
62554;SDS011;48610;52.144;8.624;2023-05-10T05:43:35;21.30;;;9.95;;
62554;SDS011;48610;52.144;8.624;2023-05-10T05:46:36;29.23;;;11.02;;
62554;SDS011;48610;52.144;8.624;2023-05-10T05:49:37;19.27;;;10.75;;
62554;SDS011;48610;52.144;8.624;2023-05-10T05:52:37;25.55;;;11.27;;
62554;SDS011;48610;52.144;8.624;2023-05-10T05:55:38;23.33;;;11.07;;
62554;SDS011;48610;52.144;8.624;2023-05-10T05:58:39;24.23;;;10.30;;
62554;SDS011;48610;52.144;8.624;2023-05-10T06:01:39;17.23;;;9.88;;
62554;SDS011;48610;52.144;8.624;2023-05-10T06:04:40;16.83;;;8.43;;
62554;SDS011;48610;52.144;8.624;2023-05-10T06:07:40;20.13;;;9.52;;
62554;SDS011;48610;52.144;8.624;2023-05-10T06:10:42;21.52;;;9.02;;
62554;SDS011;48610;52.144;8.624;2023-05-10T06:13:42;19.77;;;10.10;;
62554;SDS011;48610;52.144;8.624;2023-05-10T06:16:43;32.22;;;10.70;;
62554;SDS011;48610;52.144;8.624;2023-05-10T06:19:44;17.30;;;9.27;;
62554;SDS011;48610;52.144;8.624;2023-05-10T06:22:44;21.92;;;9.23;;
62554;SDS011;48610;52.144;8.624;2023-05-10T06:25:45;16.75;;;8.35;;
62554;SDS011;48610;52.144;8.624;2023-05-10T06:28:45;19.75;;;9.05;;
62554;SDS011;48610;52.144;8.624;2023-05-10T06:31:46;16.92;;;8.77;;
62554;SDS011;48610;52.144;8.624;2023-05-10T06:34:47;15.15;;;8.60;;
62554;SDS011;48610;52.144;8.624;2023-05-10T06:37:48;14.63;;;7.82;;
62554;SDS011;48610;52.144;8.624;2023-05-10T06:40:52;15.82;;;7.53;;
62554;SDS011;48610;52.144;8.624;2023-05-10T06:43:53;15.95;;;7.15;;
62554;SDS011;48610;52.144;8.624;2023-05-10T06:46:53;11.32;;;5.78;;
62554;SDS011;48610;52.144;8.624;2023-05-10T06:49:55;9.38;;;5.53;;
62554;SDS011;48610;52.144;8.624;2023-05-10T06:52:56;12.65;;;6.30;;
62554;SDS011;48610;52.144;8.624;2023-05-10T06:55:56;17.13;;;6.38;;
62554;SDS011;48610;52.144;8.624;2023-05-10T06:58:57;16.70;;;5.90;;
62554;SDS011;48610;52.144;8.624;2023-05-10T07:01:58;14.90;;;5.75;;
62554;SDS011;48610;52.144;8.624;2023-05-10T07:04:58;11.57;;;6.15;;
62554;SDS011;48610;52.144;8.624;2023-05-10T07:07:59;11.52;;;6.28;;
62554;SDS011;48610;52.144;8.624;2023-05-10T07:11:03;13.95;;;6.25;;
62554;SDS011;48610;52.144;8.624;2023-05-10T07:14:04;19.13;;;7.72;;
62554;SDS011;48610;52.144;8.624;2023-05-10T07:17:05;17.90;;;7.43;;
62554;SDS011;48610;52.144;8.624;2023-05-10T07:20:06;17.45;;;7.57;;
62554;SDS011;48610;52.144;8.624;2023-05-10T07:23:07;15.70;;;7.05;;
62554;SDS011;48610;52.144;8.624;2023-05-10T07:26:08;17.05;;;7.82;;
62554;SDS011;48610;52.144;8.624;2023-05-10T07:29:09;23.08;;;7.60;;
62554;SDS011;48610;52.144;8.624;2023-05-10T07:32:10;18.85;;;8.00;;
62554;SDS011;48610;52.144;8.624;2023-05-10T07:35:10;16.30;;;8.70;;
62554;SDS011;48610;52.144;8.624;2023-05-10T07:38:11;20.30;;;8.27;;
62554;SDS011;48610;52.144;8.624;2023-05-10T07:41:12;19.92;;;8.32;;
62554;SDS011;48610;52.144;8.624;2023-05-10T07:44:12;15.02;;;7.60;;
62554;SDS011;48610;52.144;8.624;2023-05-10T07:47:13;17.08;;;7.88;;
62554;SDS011;48610;52.144;8.624;2023-05-10T07:50:14;25.60;;;8.25;;
62554;SDS011;48610;52.144;8.624;2023-05-10T07:53:15;19.25;;;8.20;;
62554;SDS011;48610;52.144;8.624;2023-05-10T07:56:23;18.45;;;7.68;;
62554;SDS011;48610;52.144;8.624;2023-05-10T07:59:26;25.67;;;8.55;;
62554;SDS011;48610;52.144;8.624;2023-05-10T08:02:27;21.40;;;8.63;;
62554;SDS011;48610;52.144;8.624;2023-05-10T08:05:27;27.40;;;9.82;;
62554;SDS011;48610;52.144;8.624;2023-05-10T08:08:28;24.40;;;9.32;;
62554;SDS011;48610;52.144;8.624;2023-05-10T08:11:29;26.98;;;10.65;;
62554;SDS011;48610;52.144;8.624;2023-05-10T08:14:29;36.45;;;11.48;;
62554;SDS011;48610;52.144;8.624;2023-05-10T08:17:30;30.90;;;11.35;;
62554;SDS011;48610;52.144;8.624;2023-05-10T08:20:30;31.17;;;12.73;;
62554;SDS011;48610;52.144;8.624;2023-05-10T08:23:31;36.78;;;13.20;;
62554;SDS011;48610;52.144;8.624;2023-05-10T08:26:32;46.42;;;12.88;;
62554;SDS011;48610;52.144;8.624;2023-05-10T08:29:33;37.45;;;12.20;;
62554;SDS011;48610;52.144;8.624;2023-05-10T08:32:34;39.53;;;14.15;;
62554;SDS011;48610;52.144;8.624;2023-05-10T08:35:35;38.10;;;13.60;;
62554;SDS011;48610;52.144;8.624;2023-05-10T08:38:36;37.15;;;14.50;;
62554;SDS011;48610;52.144;8.624;2023-05-10T08:41:37;29.40;;;12.43;;
62554;SDS011;48610;52.144;8.624;2023-05-10T08:44:39;37.55;;;15.00;;
62554;SDS011;48610;52.144;8.624;2023-05-10T08:47:41;38.70;;;14.30;;
62554;SDS011;48610;52.144;8.624;2023-05-10T08:50:42;41.38;;;15.68;;
62554;SDS011;48610;52.144;8.624;2023-05-10T08:53:45;36.20;;;13.75;;
62554;SDS011;48610;52.144;8.624;2023-05-10T08:56:46;41.70;;;14.30;;
62554;SDS011;48610;52.144;8.624;2023-05-10T08:59:47;38.63;;;14.90;;
62554;SDS011;48610;52.144;8.624;2023-05-10T09:02:48;38.88;;;15.40;;
62554;SDS011;48610;52.144;8.624;2023-05-10T09:05:50;43.95;;;16.45;;
62554;SDS011;48610;52.144;8.624;2023-05-10T09:08:51;41.10;;;16.15;;
62554;SDS011;48610;52.144;8.624;2023-05-10T09:11:52;45.60;;;17.73;;
62554;SDS011;48610;52.144;8.624;2023-05-10T09:14:53;45.40;;;17.50;;
62554;SDS011;48610;52.144;8.624;2023-05-10T09:17:55;47.00;;;17.92;;
62554;SDS011;48610;52.144;8.624;2023-05-10T09:20:58;45.35;;;17.67;;
62554;SDS011;48610;52.144;8.624;2023-05-10T09:24:02;41.40;;;17.48;;
62554;SDS011;48610;52.144;8.624;2023-05-10T09:27:03;45.05;;;18.20;;
62554;SDS011;48610;52.144;8.624;2023-05-10T09:30:04;46.13;;;17.60;;
62554;SDS011;48610;52.144;8.624;2023-05-10T09:33:06;41.38;;;17.17;;
62554;SDS011;48610;52.144;8.624;2023-05-10T09:36:08;41.30;;;17.00;;
62554;SDS011;48610;52.144;8.624;2023-05-10T09:39:08;36.83;;;15.32;;
62554;SDS011;48610;52.144;8.624;2023-05-10T09:42:09;36.70;;;15.43;;
62554;SDS011;48610;52.144;8.624;2023-05-10T09:45:10;41.50;;;15.57;;
62554;SDS011;48610;52.144;8.624;2023-05-10T09:48:10;35.97;;;14.65;;
62554;SDS011;48610;52.144;8.624;2023-05-10T09:51:21;38.20;;;14.35;;
62554;SDS011;48610;52.144;8.624;2023-05-10T09:54:22;33.03;;;13.95;;
62554;SDS011;48610;52.144;8.624;2023-05-10T09:57:24;32.70;;;14.15;;
62554;SDS011;48610;52.144;8.624;2023-05-10T10:00:26;29.70;;;13.73;;
62554;SDS011;48610;52.144;8.624;2023-05-10T10:03:27;38.33;;;15.27;;
62554;SDS011;48610;52.144;8.624;2023-05-10T10:06:34;39.45;;;15.55;;
62554;SDS011;48610;52.144;8.624;2023-05-10T10:09:38;28.55;;;11.73;;
62554;SDS011;48610;52.144;8.624;2023-05-10T10:12:40;36.35;;;14.40;;
62554;SDS011;48610;52.144;8.624;2023-05-10T10:15:41;42.15;;;14.68;;
62554;SDS011;48610;52.144;8.624;2023-05-10T10:18:43;27.55;;;12.30;;
62554;SDS011;48610;52.144;8.624;2023-05-10T10:21:44;29.90;;;12.65;;
62554;SDS011;48610;52.144;8.624;2023-05-10T10:24:45;29.75;;;12.95;;
62554;SDS011;48610;52.144;8.624;2023-05-10T10:30:52;25.40;;;11.77;;
62554;SDS011;48610;52.144;8.624;2023-05-10T10:34:10;22.15;;;10.20;;
62554;SDS011;48610;52.144;8.624;2023-05-10T10:37:45;19.05;;;9.30;;
62554;SDS011;48610;52.144;8.624;2023-05-10T10:40:47;16.75;;;8.00;;
62554;SDS011;48610;52.144;8.624;2023-05-10T10:43:48;25.27;;;9.35;;
62554;SDS011;48610;52.144;8.624;2023-05-10T10:46:58;25.52;;;9.68;;
62554;SDS011;48610;52.144;8.624;2023-05-10T10:50:08;21.05;;;10.35;;
62554;SDS011;48610;52.144;8.624;2023-05-10T10:53:10;18.80;;;9.15;;
62554;SDS011;48610;52.144;8.624;2023-05-10T10:56:11;17.48;;;7.85;;
62554;SDS011;48610;52.144;8.624;2023-05-10T10:59:22;25.88;;;7.55;;
62554;SDS011;48610;52.144;8.624;2023-05-10T11:02:34;13.13;;;7.13;;
62554;SDS011;48610;52.144;8.624;2023-05-10T11:05:45;12.27;;;6.20;;
62554;SDS011;48610;52.144;8.624;2023-05-10T11:08:46;16.83;;;6.18;;
62554;SDS011;48610;52.144;8.624;2023-05-10T11:11:51;17.52;;;7.07;;
62554;SDS011;48610;52.144;8.624;2023-05-10T11:14:56;15.98;;;6.30;;
62554;SDS011;48610;52.144;8.624;2023-05-10T11:17:57;15.75;;;6.28;;
62554;SDS011;48610;52.144;8.624;2023-05-10T11:20:59;12.77;;;6.88;;
62554;SDS011;48610;52.144;8.624;2023-05-10T11:24:08;10.95;;;5.82;;
62554;SDS011;48610;52.144;8.624;2023-05-10T11:27:14;13.60;;;6.82;;
62554;SDS011;48610;52.144;8.624;2023-05-10T11:30:14;14.27;;;7.43;;
62554;SDS011;48610;52.144;8.624;2023-05-10T11:33:18;17.35;;;6.68;;
62554;SDS011;48610;52.144;8.624;2023-05-10T11:36:20;15.43;;;6.80;;
62554;SDS011;48610;52.144;8.624;2023-05-10T11:39:26;13.93;;;6.80;;
62554;SDS011;48610;52.144;8.624;2023-05-10T11:42:28;18.38;;;8.15;;
62554;SDS011;48610;52.144;8.624;2023-05-10T11:45:29;18.98;;;8.65;;
62554;SDS011;48610;52.144;8.624;2023-05-10T11:48:32;12.95;;;6.45;;
62554;SDS011;48610;52.144;8.624;2023-05-10T11:51:34;17.83;;;8.13;;
62554;SDS011;48610;52.144;8.624;2023-05-10T11:54:44;17.60;;;8.15;;
62554;SDS011;48610;52.144;8.624;2023-05-10T11:57:52;16.70;;;7.53;;
62554;SDS011;48610;52.144;8.624;2023-05-10T12:00:54;19.42;;;8.85;;
62554;SDS011;48610;52.144;8.624;2023-05-10T12:03:55;21.70;;;9.48;;
62554;SDS011;48610;52.144;8.624;2023-05-10T12:06:59;25.95;;;8.80;;
62554;SDS011;48610;52.144;8.624;2023-05-10T12:10:34;26.85;;;9.93;;
62554;SDS011;48610;52.144;8.624;2023-05-10T12:13:27;23.70;;;9.80;;
62554;SDS011;48610;52.144;8.624;2023-05-10T12:16:29;17.48;;;8.13;;
62554;SDS011;48610;52.144;8.624;2023-05-10T12:19:36;17.67;;;8.30;;
62554;SDS011;48610;52.144;8.624;2023-05-10T12:22:43;21.55;;;9.68;;
62554;SDS011;48610;52.144;8.624;2023-05-10T12:25:44;22.42;;;9.27;;
62554;SDS011;48610;52.144;8.624;2023-05-10T12:28:45;21.38;;;9.20;;
62554;SDS011;48610;52.144;8.624;2023-05-10T12:31:53;19.15;;;9.13;;
62554;SDS011;48610;52.144;8.624;2023-05-10T12:34:57;24.48;;;9.65;;
62554;SDS011;48610;52.144;8.624;2023-05-10T12:37:58;25.95;;;9.40;;
62554;SDS011;48610;52.144;8.624;2023-05-10T12:41:00;21.50;;;9.50;;
62554;SDS011;48610;52.144;8.624;2023-05-10T12:44:05;20.42;;;9.38;;
62554;SDS011;48610;52.144;8.624;2023-05-10T12:47:06;25.48;;;9.45;;
62554;SDS011;48610;52.144;8.624;2023-05-10T12:50:06;20.00;;;8.05;;
62554;SDS011;48610;52.144;8.624;2023-05-10T12:53:07;23.70;;;9.63;;
62554;SDS011;48610;52.144;8.624;2023-05-10T12:56:08;27.95;;;10.25;;
62554;SDS011;48610;52.144;8.624;2023-05-10T12:59:09;25.60;;;10.27;;
62554;SDS011;48610;52.144;8.624;2023-05-10T13:02:09;30.20;;;10.70;;
62554;SDS011;48610;52.144;8.624;2023-05-10T13:05:10;25.52;;;10.23;;
62554;SDS011;48610;52.144;8.624;2023-05-10T13:08:13;22.55;;;9.55;;
62554;SDS011;48610;52.144;8.624;2023-05-10T13:11:13;26.92;;;10.40;;
62554;SDS011;48610;52.144;8.624;2023-05-10T13:14:16;20.08;;;9.38;;
62554;SDS011;48610;52.144;8.624;2023-05-10T13:17:19;25.67;;;9.27;;
62554;SDS011;48610;52.144;8.624;2023-05-10T13:20:20;26.10;;;9.70;;
62554;SDS011;48610;52.144;8.624;2023-05-10T13:23:20;23.40;;;10.80;;
62554;SDS011;48610;52.144;8.624;2023-05-10T13:26:21;33.75;;;13.07;;
62554;SDS011;48610;52.144;8.624;2023-05-10T13:29:22;40.33;;;12.90;;
62554;SDS011;48610;52.144;8.624;2023-05-10T13:32:22;30.67;;;12.30;;
62554;SDS011;48610;52.144;8.624;2023-05-10T13:35:23;38.22;;;13.18;;
62554;SDS011;48610;52.144;8.624;2023-05-10T13:38:24;34.33;;;11.75;;
62554;SDS011;48610;52.144;8.624;2023-05-10T13:41:25;32.17;;;11.38;;
62554;SDS011;48610;52.144;8.624;2023-05-10T13:44:26;26.88;;;12.43;;
62554;SDS011;48610;52.144;8.624;2023-05-10T13:47:27;41.53;;;13.65;;
62554;SDS011;48610;52.144;8.624;2023-05-10T13:50:27;39.28;;;14.20;;
62554;SDS011;48610;52.144;8.624;2023-05-10T13:53:29;38.70;;;13.27;;
62554;SDS011;48610;52.144;8.624;2023-05-10T13:56:30;34.25;;;13.73;;
62554;SDS011;48610;52.144;8.624;2023-05-10T13:59:31;37.63;;;15.20;;
62554;SDS011;48610;52.144;8.624;2023-05-10T14:02:32;52.03;;;13.88;;
62554;SDS011;48610;52.144;8.624;2023-05-10T14:05:32;59.05;;;16.60;;
62554;SDS011;48610;52.144;8.624;2023-05-10T14:08:33;55.20;;;19.30;;
62554;SDS011;48610;52.144;8.624;2023-05-10T14:11:34;63.90;;;19.05;;
62554;SDS011;48610;52.144;8.624;2023-05-10T14:14:35;57.72;;;19.23;;
62554;SDS011;48610;52.144;8.624;2023-05-10T14:17:36;66.93;;;22.85;;
62554;SDS011;48610;52.144;8.624;2023-05-10T14:20:36;82.70;;;23.42;;
62554;SDS011;48610;52.144;8.624;2023-05-10T14:23:37;78.88;;;24.85;;
62554;SDS011;48610;52.144;8.624;2023-05-10T14:26:38;84.03;;;24.50;;
62554;SDS011;48610;52.144;8.624;2023-05-10T14:29:39;71.55;;;22.77;;
62554;SDS011;48610;52.144;8.624;2023-05-10T14:32:39;79.03;;;24.73;;
62554;SDS011;48610;52.144;8.624;2023-05-10T14:35:40;74.28;;;23.95;;
62554;SDS011;48610;52.144;8.624;2023-05-10T14:38:40;88.43;;;26.33;;
62554;SDS011;48610;52.144;8.624;2023-05-10T14:41:41;91.25;;;27.00;;
62554;SDS011;48610;52.144;8.624;2023-05-10T14:44:42;97.75;;;27.58;;
62554;SDS011;48610;52.144;8.624;2023-05-10T14:47:43;83.18;;;26.13;;
62554;SDS011;48610;52.144;8.624;2023-05-10T14:50:44;94.13;;;29.35;;
62554;SDS011;48610;52.144;8.624;2023-05-10T14:53:45;86.88;;;28.95;;
62554;SDS011;48610;52.144;8.624;2023-05-10T14:56:46;103.68;;;29.58;;
62554;SDS011;48610;52.144;8.624;2023-05-10T14:59:49;96.50;;;29.05;;
62554;SDS011;48610;52.144;8.624;2023-05-10T15:02:50;107.18;;;29.23;;
62554;SDS011;48610;52.144;8.624;2023-05-10T15:05:50;103.50;;;28.15;;
62554;SDS011;48610;52.144;8.624;2023-05-10T15:08:52;91.93;;;29.35;;
62554;SDS011;48610;52.144;8.624;2023-05-10T15:11:53;92.25;;;28.17;;
62554;SDS011;48610;52.144;8.624;2023-05-10T15:14:53;93.45;;;27.92;;
62554;SDS011;48610;52.144;8.624;2023-05-10T15:17:54;92.32;;;29.08;;
62554;SDS011;48610;52.144;8.624;2023-05-10T15:20:55;101.68;;;30.00;;
62554;SDS011;48610;52.144;8.624;2023-05-10T15:23:55;99.88;;;31.85;;
62554;SDS011;48610;52.144;8.624;2023-05-10T15:26:56;102.13;;;30.20;;
62554;SDS011;48610;52.144;8.624;2023-05-10T15:29:57;105.10;;;29.80;;
62554;SDS011;48610;52.144;8.624;2023-05-10T15:32:59;88.15;;;26.85;;
62554;SDS011;48610;52.144;8.624;2023-05-10T15:35:59;95.90;;;27.83;;
62554;SDS011;48610;52.144;8.624;2023-05-10T15:39:00;73.13;;;24.75;;
62554;SDS011;48610;52.144;8.624;2023-05-10T15:42:01;84.40;;;25.00;;
62554;SDS011;48610;52.144;8.624;2023-05-10T15:45:03;64.38;;;22.05;;
62554;SDS011;48610;52.144;8.624;2023-05-10T15:48:04;59.83;;;21.73;;
62554;SDS011;48610;52.144;8.624;2023-05-10T15:51:04;55.83;;;21.58;;
62554;SDS011;48610;52.144;8.624;2023-05-10T15:54:05;66.07;;;20.65;;
62554;SDS011;48610;52.144;8.624;2023-05-10T15:57:06;65.45;;;20.60;;
62554;SDS011;48610;52.144;8.624;2023-05-10T16:00:08;57.72;;;20.20;;
62554;SDS011;48610;52.144;8.624;2023-05-10T16:03:09;62.15;;;21.27;;
62554;SDS011;48610;52.144;8.624;2023-05-10T16:06:10;70.40;;;22.17;;
62554;SDS011;48610;52.144;8.624;2023-05-10T16:09:11;64.30;;;23.08;;
62554;SDS011;48610;52.144;8.624;2023-05-10T16:12:11;58.25;;;22.13;;
62554;SDS011;48610;52.144;8.624;2023-05-10T16:15:12;55.80;;;21.35;;
62554;SDS011;48610;52.144;8.624;2023-05-10T16:18:12;59.97;;;20.92;;
62554;SDS011;48610;52.144;8.624;2023-05-10T16:21:13;59.25;;;22.60;;
62554;SDS011;48610;52.144;8.624;2023-05-10T16:24:14;77.10;;;24.63;;
62554;SDS011;48610;52.144;8.624;2023-05-10T16:27:14;83.43;;;25.63;;
62554;SDS011;48610;52.144;8.624;2023-05-10T16:30:16;80.57;;;26.33;;
62554;SDS011;48610;52.144;8.624;2023-05-10T16:33:16;90.57;;;25.48;;
62554;SDS011;48610;52.144;8.624;2023-05-10T16:36:17;74.38;;;23.40;;
62554;SDS011;48610;52.144;8.624;2023-05-10T16:39:17;80.28;;;26.73;;
62554;SDS011;48610;52.144;8.624;2023-05-10T16:42:18;95.90;;;28.70;;
62554;SDS011;48610;52.144;8.624;2023-05-10T16:45:18;96.82;;;27.52;;
62554;SDS011;48610;52.144;8.624;2023-05-10T16:48:19;94.30;;;29.58;;
62554;SDS011;48610;52.144;8.624;2023-05-10T16:51:20;79.82;;;27.08;;
62554;SDS011;48610;52.144;8.624;2023-05-10T16:54:20;95.70;;;30.60;;
62554;SDS011;48610;52.144;8.624;2023-05-10T16:57:21;87.68;;;27.75;;
62554;SDS011;48610;52.144;8.624;2023-05-10T17:00:22;101.95;;;30.08;;
62554;SDS011;48610;52.144;8.624;2023-05-10T17:03:22;86.97;;;27.15;;
62554;SDS011;48610;52.144;8.624;2023-05-10T17:06:23;106.85;;;30.67;;
62554;SDS011;48610;52.144;8.624;2023-05-10T17:09:24;110.53;;;28.48;;
62554;SDS011;48610;52.144;8.624;2023-05-10T17:12:24;93.15;;;29.05;;
62554;SDS011;48610;52.144;8.624;2023-05-10T17:15:25;102.95;;;31.20;;
62554;SDS011;48610;52.144;8.624;2023-05-10T17:18:25;92.47;;;27.45;;
62554;SDS011;48610;52.144;8.624;2023-05-10T17:21:26;96.80;;;27.60;;
62554;SDS011;48610;52.144;8.624;2023-05-10T17:24:27;103.15;;;30.20;;
62554;SDS011;48610;52.144;8.624;2023-05-10T17:27:28;99.63;;;29.33;;
62554;SDS011;48610;52.144;8.624;2023-05-10T17:30:29;103.55;;;28.67;;
62554;SDS011;48610;52.144;8.624;2023-05-10T17:33:31;121.03;;;30.80;;
62554;SDS011;48610;52.144;8.624;2023-05-10T17:36:32;102.00;;;31.15;;
62554;SDS011;48610;52.144;8.624;2023-05-10T17:39:33;116.78;;;30.52;;
62554;SDS011;48610;52.144;8.624;2023-05-10T17:42:34;103.55;;;29.95;;
62554;SDS011;48610;52.144;8.624;2023-05-10T17:45:34;111.93;;;31.45;;
62554;SDS011;48610;52.144;8.624;2023-05-10T17:48:35;99.40;;;30.60;;
62554;SDS011;48610;52.144;8.624;2023-05-10T17:51:36;115.38;;;29.90;;
62554;SDS011;48610;52.144;8.624;2023-05-10T17:54:36;116.75;;;31.70;;
62554;SDS011;48610;52.144;8.624;2023-05-10T17:57:37;116.03;;;31.05;;
62554;SDS011;48610;52.144;8.624;2023-05-10T18:00:38;104.13;;;29.95;;
62554;SDS011;48610;52.144;8.624;2023-05-10T18:03:38;108.97;;;31.08;;
62554;SDS011;48610;52.144;8.624;2023-05-10T18:06:39;97.32;;;29.65;;
62554;SDS011;48610;52.144;8.624;2023-05-10T18:09:40;112.30;;;30.40;;
62554;SDS011;48610;52.144;8.624;2023-05-10T18:12:41;99.43;;;28.50;;